AirNav   Air Wisconsin pilot careers
 
 1505 users online  

TLT Tuluksak Airport
Tuluksak, Alaska, USA


FAA INFORMATION EFFECTIVE 01 FEBRUARY 2018

Location

FAA Identifier: TLT
Lat/Long: 61-05-15.8200N / 160-55-24.0700W
61-05.263667N / 160-55.401167W
61.0877278 / -160.9233528
(estimated)
Elevation: 35.8 ft. / 11 m (estimated)
Variation: 19E (1985)
Time zone: UTC -9 (UTC -8 during Daylight Saving Time)
Zip code: 99679

Airport Operations

Airport use: Open to the public
Activation date: 10/1959
Control tower: no
ARTCC: ANCHORAGE CENTER
FSS: KENAI FLIGHT SERVICE STATION [907-283-8469]
NOTAMs facility: ENA (NOTAM-D service available)
Attendance: UNATNDD
Wind indicator: lighted
Segmented circle: yes
Lights: ACTVT MIRL RY 15/33 - CTAF.
Beacon: white-green (lighted land airport)
ACTVT ROTG BCN - CTAF.

Airport Communications

CTAF: 122.9

Nearby radio navigation aids

VOR radial/distance  VOR name  Freq  Var
BETr041/31.9BETHEL VORTAC114.1014E

 
NDB name  Hdg/Dist  Freq  Var  ID
OSCARVILLE046/32.925111EOSE --- ... .

Airport Services

Airframe service: NONE
Powerplant service: NONE
Bottled oxygen: NONE
Bulk oxygen: NONE

Runway Information

Runway 15/33

Dimensions: 3300 x 60 ft. / 1006 x 18 m
Surface: gravel/dirt, in good condition
Runway edge lights: medium intensity
RUNWAY 15  RUNWAY 33
Latitude: 61-05.518500N61-05.009000N
Longitude: 160-55.590833W160-55.211667W
Elevation: 35.8 ft.35.8 ft.
Traffic pattern: leftleft
Markings: basic, in good conditionbasic, in good condition
Runway end identifier lights: yesyes
Touchdown point: yes, no lightsyes, no lights
Obstructions: 6 ft. brush, 50 ft. from runway, 100 ft. left and right of centerline, 8:1 slope to clear48 ft. trees, 1250 ft. from runway, 26:1 slope to clear

Airport Ownership and Management from official FAA records

Ownership: Publicly-owned
Owner: ALASKA DOT&PF CENTRAL REGION
PO BOX 196900
ANCHORAGE, AK 99519-6900
Phone 907-269-0747
Manager: LAWERENCE DAVIS
BOX 505
BETHEL, AK 99559
Phone (907) 543-2498

Airport Operational Statistics

Aircraft operations: avg 42/month *
100% air taxi
* for 12-month period ending 31 December 2016

Additional Remarks

RY COND NOT MONITORED; RCMD VISUAL INSPECTION PRIOR TO USE.
WX CAMERAS AVBL ON INTERNET AT HTTP://AVCAMS.FAA.GOV

Instrument Procedures

There are no published instrument procedures at TLT.

Some nearby airports with instrument procedures:

PFAK - Akiak Airport (14 nm SW)
PFKW - Kwethluk Airport (23 nm SW)
PALG - Kalskag Airport (32 nm NE)
PABE - Bethel Airport (32 nm SW)
PAPK - Napaskiak Airport (34 nm SW)
 
Loc | Ops | Rwys | IFR | FBO | Links
Com | Nav | Svcs | Stats | Notes

Crowley
 
Area around TLT (Tuluksak Airport)
 
Road maps at: MapQuest Bing Google
 
Aerial photo
WARNING: Photo may not be current or correct
Aerial photo of TLT (Tuluksak Airport)
Photo by Brian Kellogg

Do you have a better or more recent aerial photo of Tuluksak Airport that you would like to share? If so, please send us your photo.

 
Sectional chart

 
Airport distance calculator
Flying to Tuluksak Airport? Find the distance to fly.

From to TLT

Sunrise and sunset
Times for 20-Feb-2018
 Local
(UTC-9)
 Zulu
(UTC)
Morning civil twilight08:2717:27
Sunrise09:1218:12
Sunset18:4303:43
Evening civil twilight19:2804:28

Current date and time
Zulu (UTC)  20-Feb-2018 22:24:43
Local (UTC-9)  20-Feb-2018 13:24:43
 
METAR
PFKW 
23nm SW 
202156Z AUTO 16005KT 7SM FEW031 00/M01 A3055 RMK AO2 SLP345 T00001006 FZRANO
PABE 
31nm SW 
202153Z 17007KT 5SM BR SCT029 M01/M02 A3055 RMK AO2 SLP348 T10111022
PALG 
32nm NE 
202156Z VRB03KT 8SM OVC037 01/M02 A3056 RMK AO2 SLP306 PWINO FZRANO TSNO RVRNO
PANA 
39nm SW 
202156Z AUTO 17006KT 5SM BR CLR 00/M01 A3054 RMK AO2 SLP340 T00001011 FZRANO
PARS 
43nm N 
202156Z AUTO 00000KT 7SM OVC038 M02/M03 A3053 RMK AO2 SLP344 T10221028 FZRANO $
PPIT 
45nm W 
202156Z AUTO 16008KT 7SM OVC035 M01/M03 A3052 RMK AO2 SLP334 T10111028 FZRANO TSNO
TAF
PABE 
31nm SW 
201727Z 2018/2118 16007KT 5SM BR SCT020 BKN150 TEMPO 2018/2020 BKN020 FM210000 13008KT P6SM BKN015 BKN100 FM210700 13015KT 3SM -SN BR OVC008 FM211000 16018KT 3SM BR OVC005
NOTAMs
Click for the latest NOTAMs
NOTAMs are issued by the DoD/FAA and will open in a separate window not controlled by AirNav.

 

 
 

Would you like to see your business listed on this page?

 If your business provides an interesting product or service to pilots, flight crews, aircraft, or users of the Tuluksak Airport, you should consider listing it here.  To start the listing process, click on the button below
 
Add a business
 

Other Pages about Tuluksak Airport

Update a link
 
Copyright © AirNav, LLC. All rights reserved. Privacy Policy  Contact